Time;durP1;ratioP1;P1;durP2;ratioP2;P2;SDS_P1;SDS_P2;PMS_P1;PMS_P2;Temp;Humidity;BMP_temperature;BMP_pressure;BME280_temperature;BME280_humidity;BME280_pressure;Samples;Min_cycle;Max_cycle;Signal;HPM_P1;HPM_P2
2022/04/02 00:00:17;;;;;;;;;13.67;13.00;;;;;3.88;61.79;100768.28;5039963;28;46294;-74
2022/04/02 00:02:45;;;;;;;;;16.00;16.00;;;;;3.83;61.51;100768.13;5036291;28;45444;-76
2022/04/02 00:05:11;;;;;;;;;20.67;17.33;;;;;3.78;61.66;100769.69;5037431;28;45272;-74
2022/04/02 00:07:37;;;;;;;;;16.00;16.00;;;;;3.69;61.67;100767.63;5031538;28;45375;-75
2022/04/02 00:10:05;;;;;;;;;17.67;15.00;;;;;3.65;61.87;100768.38;5035233;28;46431;-75
2022/04/02 00:12:31;;;;;;;;;16.00;13.00;;;;;3.63;60.91;100776.94;5036355;28;45501;-74
2022/04/02 00:14:57;;;;;;;;;14.33;14.33;;;;;3.57;61.25;100777.63;5040202;28;45373;-75
2022/04/02 00:17:22;;;;;;;;;17.00;13.33;;;;;3.50;61.27;100761.72;5028967;28;45554;-74
2022/04/02 00:19:48;;;;;;;;;16.67;12.33;;;;;3.53;61.57;100769.63;5026360;28;45496;-76
2022/04/02 00:22:13;;;;;;;;;18.33;13.00;;;;;3.45;61.60;100758.97;5016464;28;45455;-76
2022/04/02 00:24:39;;;;;;;;;11.67;10.67;;;;;3.50;60.66;100774.75;5018907;28;45319;-76
2022/04/02 00:27:04;;;;;;;;;8.67;8.00;;;;;3.50;61.10;100774.75;5031770;28;45536;-77
2022/04/02 00:29:30;;;;;;;;;14.33;13.00;;;;;3.48;60.21;100774.69;5038512;28;46282;-75
2022/04/02 00:31:55;;;;;;;;;13.67;12.67;;;;;3.48;60.56;100777.28;5030875;28;45347;-76
2022/04/02 00:34:21;;;;;;;;;16.00;9.33;;;;;3.41;60.27;100765.75;5025461;28;45304;-77
2022/04/02 00:36:46;;;;;;;;;10.00;10.00;;;;;3.35;59.79;100760.34;5017474;28;45358;-75
2022/04/02 00:39:12;;;;;;;;;10.33;9.33;;;;;3.38;59.61;100778.66;5024105;28;46170;-75
2022/04/02 00:41:37;;;;;;;;;10.33;8.67;;;;;3.40;59.40;100777.00;5039113;28;45406;-74
2022/04/02 00:44:14;;;;;;;;;10.00;9.33;;;;;3.44;59.37;100770.19;5036081;28;45498;-77
2022/04/02 00:46:42;;;;;;;;;12.33;8.67;;;;;3.35;59.10;100747.31;5036387;28;45378;-74
2022/04/02 00:49:09;;;;;;;;;7.33;7.33;;;;;3.52;58.28;100770.47;5026844;28;46253;-77
2022/04/02 00:51:41;;;;;;;;;8.00;8.00;;;;;3.54;57.91;100771.44;5031242;28;45345;-75
2022/04/02 00:54:09;;;;;;;;;10.00;10.00;;;;;3.54;58.00;100768.81;5021163;28;45451;-75
2022/04/02 00:56:37;;;;;;;;;5.00;4.67;;;;;3.51;57.68;100768.69;5019491;28;45374;-76
2022/04/02 00:59:03;;;;;;;;;8.33;5.67;;;;;3.48;57.79;100760.78;5036006;28;45335;-76
2022/04/02 01:01:28;;;;;;;;;8.33;6.67;;;;;3.44;57.38;100770.19;5039157;28;45484;-77
2022/04/02 01:03:54;;;;;;;;;5.00;5.00;;;;;3.42;57.05;100770.13;5035086;28;45716;-76
2022/04/02 01:06:19;;;;;;;;;8.00;6.00;;;;;3.42;57.08;100770.13;5036415;28;45284;-75
2022/04/02 01:08:46;;;;;;;;;4.33;4.00;;;;;3.41;57.09;100762.25;5038226;28;47091;-75
2022/04/02 01:11:11;;;;;;;;;10.33;10.00;;;;;3.38;57.61;100760.44;5035539;28;45511;-77
2022/04/02 01:13:37;;;;;;;;;6.00;6.00;;;;;3.34;57.27;100760.25;5034320;28;45347;-75
2022/04/02 01:16:03;;;;;;;;;10.33;8.00;;;;;3.31;57.18;100761.03;5022114;28;46851;-76
2022/04/02 01:18:28;;;;;;;;;5.67;5.67;;;;;3.23;56.26;100752.06;5035458;28;47020;-77
2022/04/02 01:20:54;;;;;;;;;12.00;8.00;;;;;3.25;57.07;100762.53;5036532;28;45365;-76
2022/04/02 01:23:19;;;;;;;;;10.67;8.33;;;;;3.21;56.52;100758.06;5031562;28;45684;-76
2022/04/02 01:25:45;;;;;;;;;6.00;6.00;;;;;3.19;56.28;100763.19;5036268;28;45247;-77
2022/04/02 01:28:11;;;;;;;;;9.00;6.67;;;;;3.14;56.41;100749.13;5036588;28;45398;-74
2022/04/02 01:30:36;;;;;;;;;5.33;4.00;;;;;3.13;56.66;100762.97;5025159;28;45304;-77
2022/04/02 01:33:02;;;;;;;;;4.67;4.67;;;;;3.10;56.85;100761.13;5024459;28;45292;-75
2022/04/02 01:35:28;;;;;;;;;7.33;6.00;;;;;3.09;56.89;100761.97;5036581;28;45745;-76
2022/04/02 01:37:57;;;;;;;;;11.00;8.67;;;;;2.94;57.01;100743.16;5039968;28;46150;-75
2022/04/02 01:40:22;;;;;;;;;9.00;9.00;;;;;3.00;57.21;100758.13;5036050;28;45457;-75
2022/04/02 01:42:48;;;;;;;;;4.00;4.00;;;;;3.03;56.30;100769.53;5035271;28;45423;-75
2022/04/02 01:45:15;;;;;;;;;7.33;4.67;;;;;2.95;56.54;100757.06;5039231;28;45542;-75
2022/04/02 01:47:41;;;;;;;;;6.67;4.00;;;;;3.01;57.07;100771.19;5032949;28;45362;-75
2022/04/02 01:50:08;;;;;;;;;8.00;7.00;;;;;3.00;56.32;100779.84;5019823;28;45284;-76
2022/04/02 01:52:33;;;;;;;;;9.33;5.33;;;;;2.86;56.52;100758.47;5044905;28;45462;-77
2022/04/02 01:54:59;;;;;;;;;5.00;5.00;;;;;2.94;56.27;100779.59;5039924;28;45315;-76
2022/04/02 01:57:24;;;;;;;;;8.33;5.00;;;;;2.94;56.89;100783.91;5033625;28;45645;-74
2022/04/02 01:59:50;;;;;;;;;10.33;7.33;;;;;2.92;56.98;100782.97;5023415;28;45505;-75
2022/04/02 02:02:17;;;;;;;;;6.00;5.00;;;;;2.85;56.94;100782.72;5031472;28;45346;-75
2022/04/02 02:04:42;;;;;;;;;7.00;5.00;;;;;2.86;56.99;100788.81;5025593;28;45494;-76
2022/04/02 02:07:08;;;;;;;;;5.00;5.00;;;;;2.90;57.20;100795.94;5031643;28;46549;-76
2022/04/02 02:09:34;;;;;;;;;9.00;7.00;;;;;2.83;57.30;100786.09;5019796;28;45374;-76
2022/04/02 02:12:00;;;;;;;;;8.00;8.00;;;;;2.85;57.23;100806.13;5028863;28;45453;-75
2022/04/02 02:14:26;;;;;;;;;6.33;6.33;;;;;2.84;57.04;100796.56;5020410;28;45550;-75
2022/04/02 02:16:51;;;;;;;;;5.67;5.67;;;;;2.81;57.52;100801.66;5041790;28;47184;-77
2022/04/02 02:19:17;;;;;;;;;8.67;8.00;;;;;2.82;57.07;100805.13;5043426;28;45450;-75
2022/04/02 02:21:42;;;;;;;;;7.33;7.33;;;;;2.76;57.37;100800.56;5048836;28;45694;-74
2022/04/02 02:24:08;;;;;;;;;5.33;4.33;;;;;2.75;56.99;100793.59;5026913;28;44773;-75
2022/04/02 02:26:34;;;;;;;;;3.67;3.67;;;;;2.76;57.20;100790.16;5034800;28;46845;-76
2022/04/02 02:29:00;;;;;;;;;7.33;7.33;;;;;2.74;57.85;100794.44;5025682;28;45414;-76
2022/04/02 02:31:25;;;;;;;;;5.00;5.00;;;;;2.74;57.76;100802.22;5036184;28;45389;-73
2022/04/02 02:36:35;;;;;;;;;6.33;6.33;;;;;2.71;57.89;100801.22;5041873;28;45372;-75
2022/04/02 02:39:00;;;;;;;;;7.33;7.33;;;;;2.63;57.47;100792.22;5034486;28;45435;-75
2022/04/02 02:41:26;;;;;;;;;8.00;8.00;;;;;2.61;57.51;100793.91;5038360;28;45942;-75
2022/04/02 02:43:51;;;;;;;;;9.00;7.67;;;;;2.53;57.93;100785.78;5023928;28;45339;-73
2022/04/02 02:46:17;;;;;;;;;2.00;2.00;;;;;2.62;58.00;100809.56;5034458;28;45423;-75
2022/04/02 02:48:47;;;;;;;;;8.33;7.67;;;;;2.62;57.63;100808.66;5050906;28;45428;-75
2022/04/02 02:51:13;;;;;;;;;8.33;7.33;;;;;2.58;57.92;100810.22;5057197;28;45286;-75
2022/04/02 02:53:39;;;;;;;;;5.00;2.00;;;;;2.49;58.11;100799.47;5039288;28;45312;-76
2022/04/02 02:56:05;;;;;;;;;8.00;6.00;;;;;2.60;58.18;100818.09;5036663;28;46258;-76
2022/04/02 02:58:30;;;;;;;;;6.67;6.67;;;;;2.57;58.23;100813.66;5030160;28;45353;-74
2022/04/02 03:00:55;;;;;;;;;6.33;6.33;;;;;2.56;57.97;100820.59;5037058;28;45398;-75
2022/04/02 03:03:22;;;;;;;;;8.67;8.00;;;;;2.56;58.30;100828.38;5026584;28;45410;-75
2022/04/02 03:05:48;;;;;;;;;10.67;9.00;;;;;2.53;57.84;100817.88;5038795;28;45339;-75
2022/04/02 03:08:13;;;;;;;;;8.33;7.67;;;;;2.53;58.18;100823.06;5037861;28;45540;-76
2022/04/02 03:10:40;;;;;;;;;8.67;8.67;;;;;2.37;58.22;100797.25;5039285;28;45455;-75
2022/04/02 03:13:06;;;;;;;;;8.00;8.00;;;;;2.40;58.11;100814.69;5030052;28;45511;-76
2022/04/02 03:15:32;;;;;;;;;6.33;6.33;;;;;2.41;58.77;100814.75;5029515;28;46123;-73
2022/04/02 03:18:03;;;;;;;;;14.00;11.00;;;;;2.45;58.62;100834.88;5037417;28;45430;-76
2022/04/02 03:20:28;;;;;;;;;7.00;7.00;;;;;2.35;59.05;100818.81;5038588;28;45473;-76
2022/04/02 03:22:54;;;;;;;;;8.00;8.00;;;;;2.43;58.72;100833.03;5023035;28;45308;-74
2022/04/02 03:25:23;;;;;;;;;8.00;8.00;;;;;2.29;58.79;100827.25;5025877;28;46125;-75
2022/04/02 03:27:49;;;;;;;;;6.33;4.67;;;;;2.37;58.64;100831.06;5037011;28;45302;-75
2022/04/02 03:30:17;;;;;;;;;8.67;8.00;;;;;2.29;58.77;100829.84;5045323;28;45519;-76
2022/04/02 03:32:43;;;;;;;;;7.33;5.00;;;;;2.25;58.73;100823.63;5052826;28;45603;-75
2022/04/02 03:35:09;;;;;;;;;12.00;9.00;;;;;2.30;59.14;100844.59;5037227;28;47651;-76
2022/04/02 03:37:39;;;;;;;;;7.00;5.00;;;;;2.21;58.87;100821.72;5036688;28;45398;-76
2022/04/02 03:40:07;;;;;;;;;11.00;8.00;;;;;2.31;58.96;100835.09;5028706;28;45504;-74
2022/04/02 03:42:36;;;;;;;;;10.67;10.33;;;;;2.27;59.10;100834.97;5031887;28;45473;-76
2022/04/02 03:45:03;;;;;;;;;11.67;8.00;;;;;2.25;59.18;100834.03;5037141;28;46072;-75
2022/04/02 03:47:30;;;;;;;;;9.00;5.00;;;;;2.22;59.93;100830.41;5036693;28;45331;-74
2022/04/02 03:49:55;;;;;;;;;10.67;9.00;;;;;2.19;59.24;100831.16;5021973;28;45538;-74
2022/04/02 03:52:21;;;;;;;;;5.33;5.33;;;;;2.19;59.85;100831.16;5035124;28;47040;-75
2022/04/02 03:54:46;;;;;;;;;10.33;9.67;;;;;2.21;59.83;100842.50;5018030;28;47222;-76
2022/04/02 03:57:13;;;;;;;;;10.67;10.67;;;;;2.19;60.05;100836.38;5029421;28;45260;-75
2022/04/02 03:59:40;;;;;;;;;8.67;8.67;;;;;2.18;59.78;100837.19;5039070;28;45727;-75
2022/04/02 04:02:06;;;;;;;;;8.67;7.00;;;;;2.12;60.00;100828.22;5038964;28;45515;-74
2022/04/02 04:04:32;;;;;;;;;9.00;9.00;;;;;2.05;60.12;100821.00;5029550;28;46298;-77
2022/04/02 04:06:58;;;;;;;;;10.33;9.67;;;;;2.13;59.70;100837.81;5036756;28;45830;-77
2022/04/02 04:09:24;;;;;;;;;7.00;7.00;;;;;2.14;60.02;100845.69;5037326;28;45345;-79
2022/04/02 04:11:50;;;;;;;;;7.33;7.00;;;;;2.13;60.17;100849.09;5036459;28;45584;-74
2022/04/02 04:14:16;;;;;;;;;11.33;10.67;;;;;2.14;59.87;100852.56;5018251;28;46247;-77
2022/04/02 04:16:42;;;;;;;;;9.00;8.67;;;;;2.13;59.89;100850.78;5023548;28;45530;-76
2022/04/02 04:19:08;;;;;;;;;15.67;11.00;;;;;2.12;60.21;100855.09;5036953;28;45329;-77
2022/04/02 04:21:34;;;;;;;;;10.00;8.00;;;;;2.03;60.06;100839.13;5037304;28;45290;-77
2022/04/02 04:24:00;;;;;;;;;8.33;7.33;;;;;2.11;60.65;100865.44;5038297;28;46270;-76
2022/04/02 04:26:26;;;;;;;;;9.67;9.67;;;;;2.10;60.11;100861.06;5052738;28;45434;-76
2022/04/02 04:28:51;;;;;;;;;9.00;8.00;;;;;2.05;60.11;100866.09;5036482;28;45344;-75
2022/04/02 04:31:17;;;;;;;;;11.67;10.33;;;;;2.06;60.68;100874.75;5019042;28;45235;-76
2022/04/02 04:33:47;;;;;;;;;14.67;11.67;;;;;2.06;60.72;100874.75;5037164;28;46253;-75
2022/04/02 04:36:14;;;;;;;;;9.00;9.00;;;;;1.99;61.04;100868.41;5040450;28;45456;-76
2022/04/02 04:38:41;;;;;;;;;9.33;7.00;;;;;2.04;60.90;100873.78;5038797;28;45309;-76
2022/04/02 04:41:06;;;;;;;;;12.67;12.67;;;;;2.04;60.37;100890.25;5041978;28;45618;-75
2022/04/02 04:43:34;;;;;;;;;10.33;9.00;;;;;1.97;60.53;100877.84;5035331;28;47089;-74
2022/04/02 04:45:59;;;;;;;;;9.67;8.00;;;;;1.97;60.61;100876.13;5036227;28;45247;-76
2022/04/02 04:48:24;;;;;;;;;7.67;7.00;;;;;2.02;60.36;100889.31;5037241;28;45171;-75
2022/04/02 04:50:50;;;;;;;;;8.00;8.00;;;;;2.01;60.66;100890.13;5035185;28;45319;-77
2022/04/02 04:53:15;;;;;;;;;8.67;8.67;;;;;1.97;60.58;100888.22;5041570;28;46653;-77
2022/04/02 04:55:41;;;;;;;;;8.67;8.00;;;;;1.99;60.71;100892.66;5039720;28;45310;-76
2022/04/02 04:58:07;;;;;;;;;9.33;9.33;;;;;2.00;60.75;100898.75;5036597;28;45456;-77
2022/04/02 05:00:32;;;;;;;;;8.00;5.67;;;;;1.98;60.88;100909.09;5037035;28;45626;-76
2022/04/02 05:02:58;;;;;;;;;11.33;9.00;;;;;1.96;60.54;100905.53;5042190;28;46293;-78
2022/04/02 05:05:25;;;;;;;;;8.33;8.00;;;;;1.95;60.74;100914.16;5046657;28;45487;-77
2022/04/02 05:07:51;;;;;;;;;9.33;7.00;;;;;1.92;61.15;100906.19;5036529;28;46116;-77
2022/04/02 05:10:16;;;;;;;;;5.00;5.00;;;;;1.89;60.80;100906.06;5037742;28;45223;-78
2022/04/02 05:12:42;;;;;;;;;7.33;7.33;;;;;1.94;60.75;100916.66;5037326;28;46435;-77
2022/04/02 05:15:09;;;;;;;;;11.67;9.67;;;;;1.91;60.84;100911.34;5023814;28;45265;-76
2022/04/02 05:17:35;;;;;;;;;11.00;9.33;;;;;1.93;60.35;100920.06;5030696;28;45275;-76
2022/04/02 05:20:02;;;;;;;;;5.67;5.67;;;;;1.93;60.66;100918.38;5040788;28;45354;-76
2022/04/02 05:22:28;;;;;;;;;8.67;8.67;;;;;1.93;61.02;100918.38;5045822;28;47092;-76
2022/04/02 05:24:53;;;;;;;;;11.33;8.00;;;;;1.87;60.74;100912.91;5040845;28;45445;-76
2022/04/02 05:27:19;;;;;;;;;11.00;8.67;;;;;1.95;60.20;100926.22;5040599;28;45404;-76
2022/04/02 05:29:44;;;;;;;;;12.67;9.33;;;;;1.85;60.42;100914.53;5054445;28;45382;-76
2022/04/02 05:32:10;;;;;;;;;10.67;7.33;;;;;1.87;60.19;100912.91;5040278;28;47272;-75
2022/04/02 05:34:36;;;;;;;;;7.33;7.33;;;;;1.87;60.56;100920.72;5048164;28;45306;-76
2022/04/02 05:37:02;;;;;;;;;6.33;6.33;;;;;1.89;60.59;100919.06;5050160;28;45366;-76
2022/04/02 05:39:27;;;;;;;;;10.67;10.67;;;;;1.90;60.63;100928.63;5042212;28;45495;-76
2022/04/02 05:41:53;;;;;;;;;8.67;8.67;;;;;1.94;60.20;100938.31;5040664;28;46265;-74
2022/04/02 05:44:18;;;;;;;;;11.33;8.67;;;;;1.94;60.79;100943.50;5040354;28;45263;-76
2022/04/02 05:46:44;;;;;;;;;9.33;9.33;;;;;1.96;60.37;100949.69;5039981;28;45546;-76
2022/04/02 05:49:09;;;;;;;;;9.33;9.33;;;;;1.92;60.28;100937.38;5039043;28;45291;-76
2022/04/02 05:51:35;;;;;;;;;13.33;9.33;;;;;1.98;59.99;100948.06;5053862;28;47018;-75
2022/04/02 05:54:00;;;;;;;;;11.33;11.00;;;;;1.88;60.51;100930.28;5043535;28;45437;-75
2022/04/02 05:56:27;;;;;;;;;13.00;10.33;;;;;1.96;60.13;100943.63;5049113;28;45719;-76
2022/04/02 05:58:53;;;;;;;;;12.00;12.00;;;;;1.98;60.04;100942.84;5036919;28;45256;-77
2022/04/02 06:01:18;;;;;;;;;6.00;6.00;;;;;2.08;59.91;100957.16;5044330;28;46049;-77
2022/04/02 06:03:44;;;;;;;;;9.67;9.67;;;;;2.03;59.86;100948.25;5038832;28;45631;-74
2022/04/02 06:06:10;;;;;;;;;9.00;5.67;;;;;2.07;59.92;100955.38;5056620;28;45348;-77
2022/04/02 06:08:36;;;;;;;;;10.33;8.33;;;;;2.17;60.18;100969.66;5057769;28;45517;-75
2022/04/02 06:11:01;;;;;;;;;7.00;7.00;;;;;2.21;59.83;100971.56;5055507;28;46903;-75
2022/04/02 06:13:27;;;;;;;;;7.67;7.67;;;;;2.15;60.09;100953.13;5050253;28;45367;-75
2022/04/02 06:15:53;;;;;;;;;8.33;8.33;;;;;2.32;59.97;100982.44;5044193;28;45439;-73
2022/04/02 06:18:19;;;;;;;;;12.67;9.00;;;;;2.33;59.71;100981.59;5032805;28;45495;-75
2022/04/02 06:20:45;;;;;;;;;6.33;5.00;;;;;2.37;59.74;100984.44;5041045;28;46967;-74
2022/04/02 06:23:11;;;;;;;;;9.00;9.00;;;;;2.40;59.21;100986.25;5040326;28;45538;-74
2022/04/02 06:25:37;;;;;;;;;11.67;8.33;;;;;2.37;59.53;100970.53;5038931;28;45382;-79
2022/04/02 06:28:02;;;;;;;;;8.00;8.00;;;;;2.38;59.83;100983.59;5039362;28;45460;-82
2022/04/02 06:30:28;;;;;;;;;8.33;8.33;;;;;2.50;59.19;100996.25;5039662;28;46460;-78
2022/04/02 06:32:54;;;;;;;;;11.67;6.33;;;;;2.53;59.30;100999.88;5039404;28;45370;-78
2022/04/02 06:35:19;;;;;;;;;12.67;5.00;;;;;2.61;59.49;101001.94;5040943;28;45359;-77
2022/04/02 06:37:47;;;;;;;;;10.00;8.33;;;;;2.61;59.47;101000.22;5038812;28;45288;-76
2022/04/02 06:40:13;;;;;;;;;8.67;7.67;;;;;2.64;59.17;100989.94;5038480;28;45883;-78
2022/04/02 06:42:38;;;;;;;;;9.00;9.00;;;;;2.61;59.60;100979.44;5038738;28;45451;-80
2022/04/02 06:45:05;;;;;;;;;9.00;7.00;;;;;2.71;59.21;100993.72;5038947;28;45169;-75
2022/04/02 06:47:31;;;;;;;;;7.00;7.00;;;;;2.72;59.49;100985.09;5038796;28;45503;-77
2022/04/02 06:49:57;;;;;;;;;9.33;7.67;;;;;2.69;59.65;100983.22;5038191;28;46135;-77
2022/04/02 06:52:24;;;;;;;;;8.33;8.33;;;;;2.85;59.09;101010.78;5037233;28;45498;-76
2022/04/02 06:54:52;;;;;;;;;10.33;10.33;;;;;2.98;58.73;101022.59;5033505;28;45935;-78
2022/04/02 06:57:22;;;;;;;;;6.00;6.00;;;;;3.04;59.16;101017.66;5051469;28;45244;-78
2022/04/02 06:59:48;;;;;;;;;7.67;7.67;;;;;2.99;58.59;100995.78;5035970;28;46168;-79
2022/04/02 07:02:14;;;;;;;;;8.00;8.00;;;;;3.06;59.04;101010.78;5038906;28;45481;-79
2022/04/02 07:04:42;;;;;;;;;8.33;8.33;;;;;3.14;58.82;101012.00;5045263;28;45340;-78
2022/04/02 07:07:08;;;;;;;;;9.00;6.67;;;;;3.22;58.21;101034.03;5038356;28;45376;-80
2022/04/02 07:09:34;;;;;;;;;9.67;9.00;;;;;3.24;58.24;101028.88;5040766;28;46179;-79
2022/04/02 07:11:59;;;;;;;;;4.00;4.00;;;;;3.21;58.02;101021.84;5035840;28;45446;-77
2022/04/02 07:14:24;;;;;;;;;8.00;8.00;;;;;3.18;57.94;101008.72;5037157;28;45308;-81
2022/04/02 07:16:50;;;;;;;;;19.00;18.00;;;;;3.38;57.89;101028.66;5038908;28;45275;-87
2022/04/02 07:19:21;;;;;;;;;15.33;9.67;;;;;3.44;57.42;101030.59;5037351;28;45509;-81
2022/04/02 07:21:47;;;;;;;;;5.67;5.67;;;;;3.27;57.55;100993.47;5036082;28;45673;-79
2022/04/02 07:24:13;;;;;;;;;6.00;6.00;;;;;3.56;57.56;101045.84;5036950;28;45180;-79
2022/04/02 07:26:39;;;;;;;;;13.67;11.33;;;;;3.64;56.93;101039.25;5019201;28;45232;-81
2022/04/02 07:29:07;;;;;;;;;6.00;6.00;;;;;3.64;57.19;101031.41;5037114;28;46612;-82
2022/04/02 07:31:32;;;;;;;;;8.00;8.00;;;;;3.60;56.86;101019.09;5037942;28;45272;-80
2022/04/02 07:33:59;;;;;;;;;10.33;8.33;;;;;3.73;56.23;101034.38;5032372;28;45418;-81
2022/04/02 07:36:33;;;;;;;;;8.00;8.00;;;;;3.83;55.92;101046.94;5019227;28;45388;-79
2022/04/02 07:39:15;;;;;;;;;5.67;5.67;;;;;3.89;56.03;101054.09;5028030;28;46419;-82
2022/04/02 07:41:49;;;;;;;;;6.67;5.67;;;;;3.95;55.57;101051.75;5037539;28;45510;-84
2022/04/02 07:44:32;;;;;;;;;8.00;7.33;;;;;3.99;55.99;101053.63;5044472;28;45256;-82
2022/04/02 07:46:59;;;;;;;;;9.00;9.00;;;;;3.94;55.16;101035.22;5053031;28;45201;-86
2022/04/02 07:49:28;;;;;;;;;6.67;6.67;;;;;3.55;55.36;100947.72;5039864;28;45544;-85
2022/04/02 07:51:54;;;;;;;;;7.67;6.33;;;;;3.94;55.01;101003.94;5038136;28;45481;-86
2022/04/02 07:54:27;;;;;;;;;6.67;6.67;;;;;4.05;54.65;101030.41;5040306;28;45423;-86
2022/04/02 07:57:02;;;;;;;;;9.00;6.67;;;;;4.29;54.74;101062.66;5039443;28;45461;-82
2022/04/02 07:59:38;;;;;;;;;8.00;6.00;;;;;4.35;53.27;101064.56;5023567;28;45773;-87
2022/04/02 08:02:04;;;;;;;;;9.00;8.00;;;;;4.18;53.96;101024.81;5031294;28;45324;-84
2022/04/02 08:04:30;;;;;;;;;11.67;9.00;;;;;4.50;53.56;101059.94;5036094;28;45992;-80
2022/04/02 08:06:57;;;;;;;;;9.33;9.00;;;;;4.58;53.92;101066.34;5039223;28;45432;-80
2022/04/02 08:09:25;;;;;;;;;6.67;6.67;;;;;4.04;52.94;100963.47;5047871;28;46517;-82
2022/04/02 08:11:52;;;;;;;;;8.67;8.33;;;;;4.74;52.66;101070.38;5055585;28;45409;-84
2022/04/02 08:14:18;;;;;;;;;8.00;8.00;;;;;4.79;52.36;101065.34;5042153;28;45398;-81
2022/04/02 08:16:44;;;;;;;;;8.00;8.00;;;;;4.85;52.49;101055.13;5049689;28;45528;-80
2022/04/02 08:19:12;;;;;;;;;9.00;7.33;;;;;4.71;52.13;101025.91;5037155;28;47411;-79
2022/04/02 08:21:38;;;;;;;;;13.00;6.00;;;;;4.96;50.81;101034.59;5046490;28;45586;-80
2022/04/02 08:24:04;;;;;;;;;8.33;8.33;;;;;5.29;50.07;101077.53;5054526;28;45341;-82
2022/04/02 08:26:39;;;;;;;;;8.67;6.00;;;;;5.44;49.59;101077.16;5041933;28;45368;-81
2022/04/02 08:29:30;;;;;;;;;5.00;5.00;;;;;5.68;48.57;101077.09;5029119;28;46060;-79
2022/04/02 08:31:58;;;;;;;;;6.67;6.67;;;;;5.73;47.10;101052.88;5039751;28;46498;-80
2022/04/02 08:34:49;;;;;;;;;5.33;5.33;;;;;6.11;46.93;101055.81;5042721;28;45373;-79
2022/04/02 08:37:29;;;;;;;;;5.33;5.33;;;;;6.65;44.49;101074.00;5044000;28;45408;-83
2022/04/02 08:40:11;;;;;;;;;9.67;6.00;;;;;7.05;43.79;101075.97;5056536;28;45368;-82
2022/04/02 08:42:56;;;;;;;;;6.67;6.67;;;;;7.59;43.15;101078.25;5041176;28;45440;-79
2022/04/02 08:45:29;;;;;;;;;6.25;5.00;;;;;8.09;41.81;101014.72;5037501;28;44790;-82
2022/04/02 08:48:27;;;;;;;;;3.00;3.00;;;;;12.65;35.25;101069.94;5037711;28;45436;-83
2022/04/02 08:51:15;;;;;;;;;1.75;1.75;;;;;17.95;27.74;101065.66;5039449;28;47120;-84
2022/04/02 08:54:01;;;;;;;;;7.00;6.50;;;;;19.64;25.07;101023.84;5043283;28;44862;-83
2022/04/02 08:56:29;;;;;;;;;5.00;4.00;;;;;22.80;21.61;101058.56;5052545;28;44867;-83
2022/04/02 08:59:04;;;;;;;;;6.00;4.25;;;;;24.49;19.80;101066.84;5054718;28;45480;-83
2022/04/02 09:02:00;;;;;;;;;5.00;4.00;;;;;25.97;17.57;101081.31;5038564;28;46058;-84
2022/04/02 09:05:09;;;;;;;;;4.00;4.00;;;;;25.86;19.52;101045.88;5039017;28;45504;-83
2022/04/02 09:07:49;;;;;;;;;5.00;5.00;;;;;25.81;17.68;101050.66;5038992;28;45350;-86
2022/04/02 09:10:33;;;;;;;;;3.67;3.00;;;;;28.00;15.65;101067.34;5018810;28;45339;-81
2022/04/02 09:13:04;;;;;;;;;5.00;5.00;;;;;26.60;17.21;101073.50;5022390;28;46666;-83
2022/04/02 09:15:39;;;;;;;;;7.00;6.00;;;;;28.39;15.81;101076.78;5041224;28;45567;-84
2022/04/02 09:18:48;;;;;;;;;4.67;4.67;;;;;26.53;16.89;101079.34;5029604;28;45334;-82
2022/04/02 09:21:58;;;;;;;;;4.33;4.33;;;;;27.18;17.99;101080.28;5040546;28;45467;-88
2022/04/02 09:24:26;;;;;;;;;5.33;5.00;;;;;25.61;16.93;101067.81;5040298;28;45563;-87
2022/04/02 09:27:17;;;;;;;;;3.67;3.67;;;;;23.89;18.09;101079.28;5041228;28;45338;-86
2022/04/02 09:30:10;;;;;;;;;8.33;6.00;;;;;21.77;19.55;101068.47;5045577;28;45700;-83
2022/04/02 09:33:07;;;;;;;;;8.00;8.00;;;;;21.35;19.40;101074.31;5072191;27;45588;-85
2022/04/02 09:35:38;;;;;;;;;4.00;4.00;;;;;19.31;21.58;101091.41;5043144;28;46631;-83
2022/04/02 09:38:45;;;;;;;;;4.67;4.00;;;;;20.29;20.11;101068.50;5041217;28;45561;-83
2022/04/02 09:41:16;;;;;;;;;5.00;5.00;;;;;19.92;21.44;101077.50;5042754;28;45508;-83
2022/04/02 09:43:59;;;;;;;;;5.00;5.00;;;;;20.13;20.61;101037.72;5037208;28;45383;-82
2022/04/02 09:46:43;;;;;;;;;4.67;4.67;;;;;19.52;21.20;101088.22;5036862;28;45433;-81
2022/04/02 09:49:27;;;;;;;;;6.00;5.00;;;;;23.92;18.20;101087.25;5040237;28;45443;-74
2022/04/02 09:52:04;;;;;;;;;6.00;6.00;;;;;27.23;15.32;101073.63;5025224;28;45774;-70
2022/04/02 09:54:38;;;;;;;;;3.00;3.00;;;;;27.72;14.67;101068.13;5032428;28;45395;-74
2022/04/02 09:57:45;;;;;;;;;5.00;4.00;;;;;29.38;12.89;101077.72;5033402;28;46885;-74
2022/04/02 10:00:20;;;;;;;;;3.00;3.00;;;;;31.41;15.05;101074.41;4993398;28;45544;-73
2022/04/02 10:03:04;;;;;;;;;3.00;3.00;;;;;32.67;11.48;101076.50;4992273;28;45311;-76
2022/04/02 10:05:41;;;;;;;;;4.75;4.00;;;;;33.40;11.21;101074.19;4989953;28;45368;-76
2022/04/02 10:08:44;;;;;;;;;3.00;3.00;;;;;34.48;10.05;101068.66;4994152;28;47315;-74
2022/04/02 10:11:11;;;;;;;;;3.40;3.40;;;;;32.00;11.29;101049.94;4916335;28;45461;-75
2022/04/02 10:13:39;;;;;;;;;1.00;1.00;;;;;32.51;10.58;101079.63;4899655;28;45650;-75
2022/04/02 10:16:11;;;;;;;;;3.00;3.00;;;;;32.51;11.03;101083.22;4899755;28;45583;-73
2022/04/02 10:18:38;;;;;;;;;2.80;2.00;;;;;31.72;10.72;101081.13;4897546;28;47289;-73
2022/04/02 10:21:07;;;;;;;;;7.00;6.00;;;;;28.78;12.97;101050.84;4898459;28;45461;-75
2022/04/02 10:23:36;;;;;;;;;5.00;5.00;;;;;27.38;14.24;101079.16;4898265;29;45448;-74
2022/04/02 10:26:19;;;;;;;;;4.00;4.00;;;;;26.22;14.25;101089.00;4898687;28;45477;-74
2022/04/02 10:28:58;;;;;;;;;5.00;5.00;;;;;28.17;12.58;101088.00;4898240;28;45344;-75
2022/04/02 10:31:37;;;;;;;;;4.00;4.00;;;;;24.64;15.22;101084.97;4897675;28;45578;-74
2022/04/02 10:34:38;;;;;;;;;3.75;3.75;;;;;22.07;16.79;101104.16;4899453;29;45567;-74
2022/04/02 10:37:14;;;;;;;;;3.67;3.67;;;;;21.38;17.32;101076.03;4942456;28;45500;-79
2022/04/02 10:39:53;;;;;;;;;5.00;5.00;;;;;20.76;18.26;101090.41;4956104;28;46260;-77
2022/04/02 10:42:22;;;;;;;;;4.33;3.67;;;;;19.72;19.29;101066.41;4951762;28;45520;-78
2022/04/02 10:44:58;;;;;;;;;6.00;5.00;;;;;18.67;19.57;101109.69;4956232;28;45442;-76
2022/04/02 10:47:30;;;;;;;;;3.00;3.00;;;;;17.62;19.94;101092.88;5014032;28;45458;-75
2022/04/02 10:50:07;;;;;;;;;2.67;2.67;;;;;16.53;21.51;101082.78;5030602;28;45534;-76
2022/04/02 10:52:34;;;;;;;;;3.33;3.33;;;;;15.37;22.00;101017.47;5036237;28;45720;-75
2022/04/02 10:55:01;;;;;;;;;4.00;4.00;;;;;15.20;22.15;101070.66;5038036;28;45465;-77
2022/04/02 10:57:35;;;;;;;;;4.00;4.00;;;;;14.06;22.63;100996.91;5036543;28;45455;-78
2022/04/02 11:00:04;;;;;;;;;5.00;5.00;;;;;14.41;23.49;101058.59;5032556;28;45434;-80
2022/04/02 11:02:40;;;;;;;;;5.75;5.00;;;;;14.43;23.90;101072.75;5034692;28;45737;-81
2022/04/02 11:05:08;;;;;;;;;2.25;2.25;;;;;14.30;23.62;101094.00;5038185;28;45149;-76
2022/04/02 11:07:44;;;;;;;;;4.75;4.75;;;;;13.87;23.99;101084.34;5034313;28;45420;-80
2022/04/02 11:10:20;;;;;;;;;5.00;3.00;;;;;13.46;24.91;101094.91;5031899;28;45452;-77
2022/04/02 11:12:48;;;;;;;;;4.50;3.25;;;;;13.17;25.49;101092.19;5030991;28;45415;-80
2022/04/02 11:15:24;;;;;;;;;4.50;4.50;;;;;12.86;25.49;101050.66;5038927;28;45418;-80
2022/04/02 11:17:53;;;;;;;;;3.50;3.50;;;;;13.03;25.45;101091.28;5042351;28;45429;-77
2022/04/02 11:20:23;;;;;;;;;4.25;4.25;;;;;12.58;26.13;101044.41;5035697;28;46146;-80
2022/04/02 11:22:52;;;;;;;;;4.25;4.25;;;;;12.30;25.80;101083.91;5025808;28;45600;-77
2022/04/02 11:25:35;;;;;;;;;5.00;3.50;;;;;11.97;26.51;101085.41;5031153;28;45528;-76
2022/04/02 11:28:20;;;;;;;;;6.00;5.00;;;;;11.80;26.09;101081.78;5037459;28;45492;-73
2022/04/02 11:31:01;;;;;;;;;3.75;2.00;;;;;11.64;27.01;101088.66;5052848;28;45323;-76
2022/04/02 11:33:27;;;;;;;;;6.00;4.25;;;;;11.32;26.95;101056.69;5043806;28;45577;-77
2022/04/02 11:35:57;;;;;;;;;2.75;2.75;;;;;11.50;26.91;101099.94;5041962;28;45695;-74
2022/04/02 11:38:49;;;;;;;;;3.00;3.00;;;;;11.60;27.03;101094.75;5037031;28;45499;-78
2022/04/02 11:41:30;;;;;;;;;4.50;4.00;;;;;11.70;26.58;101091.34;5025769;28;46393;-79
2022/04/02 11:44:11;;;;;;;;;7.00;5.50;;;;;11.61;27.15;101077.19;5030502;28;45521;-79